Wilson Commons Park, Washoe Valley, Nevada Weather observations

Data are for 10 minute period ending at time listed.
 Day   Time   Solar   Ave.   Ave.  Ave.  Vector  Max.   Baro.   Total    
  of    of     Rad.   Air    Rel.  Wind   Wind   Wind  Press.  Precip.   
Year   Day            Temp.  Hum.  Speed  Dir.   Gust                    
2026   (PST)  Kw/m2    F      %     mph   deg.    mph    mb.     in.     
-------------------------------------------------------------------------
 123   16:30   0.29   53.5    59   10.4    37    17.1   99999.0    0.00 
 123   16:40   0.32   55.5    51    8.0    36    14.6   99999.0    0.00 
 123   16:50   0.22   56.3    52    7.4    34    11.7   99999.0    0.00 
 123   17:00   0.19   55.5    54   10.8    35    15.3   99999.0    0.00 
 123   17:10   0.15   54.5    58    9.4    36    13.1   99999.0    0.00 
 123   17:20   0.09   53.8    59    8.0    36    12.1   99999.0    0.00 
 123   17:30   0.07   53.6    60    5.1    33     7.4   99999.0    0.00 
 123   17:40   0.04   53.3    62    4.0    34     5.6   99999.0    0.00 
 123   17:50   0.02   52.7    65    3.0    33     6.7   99999.0    0.00 
 123   18:00   0.02   52.4    65    3.3    33     5.6   99999.0    0.00 
 123   18:10   0.02   52.2    66    3.3    36     7.8   99999.0    0.00 
 123   18:20   0.01   50.9    76    3.6    39     4.9   99999.0    0.00 
 123   18:30   0.01   49.9    78    3.4    38     4.9   99999.0    0.00 
 123   18:40   0.01   49.7    79    2.4    33     3.1   99999.0    0.00 
 123   18:50   0.01   49.8    77    2.1    32     3.1   99999.0    0.00 
 123   19:00   0.00   49.7    75    2.4    32     3.8   99999.0    0.00 
 123   19:10   0.00   49.6    74    2.1    32     3.5   99999.0    0.00 
 123   19:20   0.00   48.8    77    2.5    33     4.2   99999.0    0.00 
 123   19:30   0.00   48.5    78    2.9    33     4.2   99999.0    0.00 
 123   19:40   0.00   48.1    82    3.1    33     4.2   99999.0    0.00 
 123   19:50   0.00   47.5    82    2.9    33     4.2   99999.0    0.00 
 123   20:00   0.00   46.6    83    2.5    33     4.9   99999.0    0.00 
 123   20:10   0.00   47.2    78    1.7    33     2.8   99999.0    0.00 
 123   20:20   0.00   47.2    79    1.5    33     3.1   99999.0    0.00 
 123   20:30   0.00   46.9    80    2.4    33     3.5   99999.0    0.00 
 123   20:40   0.00   47.0    79    2.9    33     4.2   99999.0    0.00 
 123   20:50   0.00   47.8    75    2.5    33     3.8   99999.0    0.00 
 123   21:00   0.00   47.2    78    1.7    33     3.8   99999.0    0.00 
 123   21:10   0.00   46.2    81    2.9    34     5.3   99999.0    0.00 
 123   21:20   0.00   46.0    79    1.7    34     3.5   99999.0    0.00 
 123   21:30   0.00   45.0    83    3.2    34     4.9   99999.0    0.00 
 123   21:40   0.00   44.5    83    4.0    34     5.3   99999.0    0.00 
 123   21:50   0.00   44.8    81    3.5    33     4.6   99999.0    0.00 
 123   22:00   0.00   44.4    81    2.1    33     3.5   99999.0    0.00 
 123   22:10   0.00   43.4    84    1.2    33     2.4   99999.0    0.00 
 123   22:20   0.00   42.7    86    0.7    33     2.1   99999.0    0.00 
 123   22:30   0.00   42.6    84    1.4    33     3.5   99999.0    0.00 
 123   22:40   0.00   43.2    83    2.8    33     4.6   99999.0    0.00 
 123   22:50   0.00   42.6    87    2.8    33     3.8   99999.0    0.00 
 123   23:00   0.00   43.3    86    2.4    33     3.8   99999.0    0.00 
 123   23:10   0.00   44.7    80    1.9    33     3.5   99999.0    0.00 
 123   23:20   0.00   45.5    81    1.8    33     2.8   99999.0    0.00 
 123   23:30   0.00   46.0    78    2.1    33     3.1   99999.0    0.00 
 123   23:40   0.00   45.1    86    3.2    33     5.3   99999.0    0.00 
 123   23:50   0.00   44.1    86    4.0    37     7.1   99999.0    0.00 
 124    0:00   0.00   45.4    78    2.3    36     3.1   99999.0    0.00 
 124    0:10   0.00   45.5    79    2.0    36     2.8   99999.0    0.00 
 124    0:20   0.00   44.8    79    2.9    36     3.8   99999.0    0.00 
 124    0:30   0.00   43.4    83    1.6    36     2.8   99999.0    0.00 
 124    0:40   0.00   41.8    88    2.0    36     4.2   99999.0    0.00 
 124    0:50   0.00   41.8    88    1.0    36     2.8   99999.0    0.00 
 124    1:00   0.00   42.4    88    1.1    36     3.1   99999.0    0.00 
 124    1:10   0.00   42.3    88    4.3    36     5.6   99999.0    0.00 
 124    1:20   0.00   43.0    86    2.3    36     4.6   99999.0    0.00 
 124    1:30   0.00   43.0    87    1.8    36     2.4   99999.0    0.00 
 124    1:40   0.00   42.8    88    0.9    36     2.1   99999.0    0.00 
 124    1:50   0.00   42.4    90    0.1    36     1.0   99999.0    0.00 
 124    2:00   0.00   42.5    90    1.3    36     4.2   99999.0    0.00 
 124    2:10   0.00   43.6    87    4.1    35     5.6   99999.0    0.00 
 124    2:20   0.00   44.9    82    3.9    35     5.3   99999.0    0.00 
 124    2:30   0.00   45.9    78    1.3    35     3.5   99999.0    0.00 
 124    2:40   0.00   44.8    82    3.4    35     6.7   99999.0    0.00 
 124    2:50   0.00   43.4    86    3.3    33     6.3   99999.0    0.00 
 124    3:00   0.00   42.7    88    2.2    33     3.8   99999.0    0.00 
 124    3:10   0.00   42.9    86    2.8    33     4.2   99999.0    0.00 
 124    3:20   0.00   43.0    84    1.0    33     3.1   99999.0    0.00 
 124    3:30   0.00   42.9    84    3.0    33     4.9   99999.0    0.00 
 124    3:40   0.00   43.2    83    3.3    33     4.9   99999.0    0.00 
 124    3:50   0.00   44.3    80    1.6    33     3.8   99999.0    0.00 
 124    4:00   0.00   44.2    82    1.9    33     2.8   99999.0    0.00 
 124    4:10   0.00   43.4    84    2.8    33     4.2   99999.0    0.00 
 124    4:20   0.00   43.1    86    2.2    33     3.8   99999.0    0.00 
 124    4:30   0.00   42.2    85    2.6    33     4.6   99999.0    0.00 
 124    4:40   0.00   40.9    87    3.9    42     6.3   99999.0    0.00 
 124    4:50   0.00   41.1    87    4.0    38     7.4   99999.0    0.00 
 124    5:00   0.00   40.5    90    5.2    36     7.8   99999.0    0.00 
 124    5:10   0.00   42.1    87    3.4    36     5.3   99999.0    0.00 
 124    5:20   0.01   42.4    88    1.9    33     4.2   99999.0    0.00 
 124    5:30   0.01   42.2    88    2.8    30     4.2   99999.0    0.00 
 124    5:40   0.03   42.7    89    2.3    30     3.1   99999.0    0.00 
 124    5:50   0.05   44.0    85    3.0    30     5.6   99999.0    0.00 
 124    6:00   0.08   45.4    80    1.9    30     3.8   99999.0    0.00 
 124    6:10   0.08   46.8    74    1.7    30     3.5   99999.0    0.00 
 124    6:20   0.11   46.4    82    2.4    31     4.2   99999.0    0.00 
 124    6:30   0.19   47.4    76    1.6    32     5.6   99999.0    0.00 
 124    6:40   0.19   48.3    78    2.7    32     4.9   99999.0    0.00 
 124    6:50   0.16   48.7    79    3.9    33     5.3   99999.0    0.00 
 124    7:00   0.13   48.9    77    2.8    34     3.8   99999.0    0.00 
 124    7:10   0.15   49.0    78    3.4    34     5.3   99999.0    0.00 
 124    7:20   0.12   49.0    79    2.1    32     4.6   99999.0    0.00 
 124    7:30   0.09   48.4    82    5.1    36     7.4   99999.0    0.00 
 124    7:40   0.08   47.9    83    4.7    38     7.8   99999.0    0.00 
 124    7:50   0.11   48.2    81    3.7    41     7.1   99999.0    0.00 
 124    8:00   0.10   48.5    79    5.2    36     7.1   99999.0    0.00 
 124    8:10   0.14   49.1    77    4.9    34     8.5   99999.0    0.00 
 124    8:20   0.18   49.3    81    5.2    33     8.5   99999.0    0.00 
 124    8:30   0.20   49.5    78    6.1    44     9.9   99999.0    0.00 
 124    8:40   0.18   49.5    77    4.6    43     7.1   99999.0    0.00 
 124    8:50   0.19   49.5    75    1.1    40     3.8   99999.0    0.00 
 124    9:00   0.19   49.8    76    3.2    38     7.1   99999.0    0.00 
 124    9:10   0.37   50.1    75    5.2    35     7.1   99999.0    0.00 
 124    9:20   0.35   50.6    73    4.5    38     6.3   99999.0    0.00 
 124    9:30   0.34   51.0    72    4.8    37     7.8   99999.0    0.00 
 124    9:40   0.28   51.1    73    4.5    37     8.1   99999.0    0.00 
 124    9:50   0.23   51.2    73    4.3    43     7.4   99999.0    0.00 
 124   10:00   0.23   51.2    74    3.4    43     5.6   99999.0    0.00 
 124   10:10   0.29   51.5    72    4.5    44     7.1   99999.0    0.00 
 124   10:20   0.20   51.3    71    3.6    43     6.7   99999.0    0.00 
 124   10:30   0.15   51.5    71    0.3    34     1.7   99999.0    0.00 
 124   10:40   0.15   51.4    73    2.4    34     4.2   99999.0    0.00 
 124   10:50   0.14   51.2    73    2.2    34     4.2   99999.0    0.00 
 124   11:00   0.13   50.8    75    3.6    38     6.0   99999.0    0.00 
 124   11:10   0.15   50.3    79    4.3    35     7.1   99999.0    0.00 
 124   11:20   0.16   49.7    78    4.1    34     7.1   99999.0    0.01 
 124   11:30   0.08   49.3    80    2.8    33     4.2   99999.0    0.00 
 124   11:40   0.05   49.3    82    2.3    33     5.3   99999.0    0.00 
 124   11:50   0.06   48.7    82    2.8    51     6.3   99999.0    0.02 
 124   12:00   0.08   47.3    87    6.1    38     9.2   99999.0    0.02 
 124   12:10   0.10   46.0    91    4.4    42     6.3   99999.0    0.01 
 124   12:20   0.15   45.9    92    3.5    40     5.6   99999.0    0.01 
 124   12:30   0.14   46.3    93    2.2    39     4.2   99999.0    0.00 
 124   12:40   0.31   47.0    90    3.8    36     6.7   99999.0    0.00 
 124   12:50   0.59   49.3    87    7.7    36    12.8   99999.0    0.00 
 124   13:00   0.19   49.2    84    6.8    37    11.7   99999.0    0.00 
 124   13:10   0.09   49.0    82    6.6    38    11.4   99999.0    0.00 
 124   13:20   0.15   48.1    86    8.4    49    14.9   99999.0    0.00 
 124   13:30   0.41   48.8    84    8.6    38    12.4   99999.0    0.00 
 124   13:40   0.34   49.7    77    8.9    36    14.6   99999.0    0.00 
 124   13:50   0.25   50.7    76    5.7    35     9.6   99999.0    0.00 
 124   14:00   0.13   51.1    74    7.7    34    12.1   99999.0    0.00 
 124   14:10   0.15   50.9    73    9.0    37    13.1   99999.0    0.00 
 124   14:20   0.13   50.3    74    8.3    37    12.4   99999.0    0.00 
 124   14:30   0.14   49.5    82    7.2    43    11.7   99999.0    0.00 
 124   14:40   0.16   49.9    76    6.1    36    13.9   99999.0    0.00 
 124   14:50   0.16   49.6    75   10.9    38    17.1   99999.0    0.00 
 124   15:00   0.18   48.7    77   13.0    37    18.1   99999.0    0.00 
 124   15:10   0.06   47.3    80   14.1    37    21.7   99999.0    0.01 
 124   15:20   0.02   45.9    85   12.7    36    20.6   99999.0    0.05 
 124   15:30   0.05   44.9    89    8.9    38    14.6   99999.0    0.03 
 124   15:40   0.11   44.8    88   10.7    44    18.5   99999.0    0.01 
 124   15:50   0.12   44.9    86   12.0    39    19.6   99999.0    0.01 
 124   16:00   0.05   44.9    86   11.1    34    16.0   99999.0    0.00 
 124   16:10   0.08   45.3    86    7.6    36    15.6   99999.0    0.00 
 124   16:20   0.04   45.8    85    1.8    34     4.2   99999.0    0.00 

Return to Wilson Commons Park graphs page.


Western Regional Climate Center,wrcc@dri.edu